Terminal Aerodrome Forecast
Issued by NWS

Home | Current Version | Previous Version | Text Only | Print | Product List | Glossary On
Versions: 1 2 3 4 5 6 7 8 9 10 11 12 13 14
000
FTUS43 KDTX 281740
TAFMBS
TAF
KMBS 281740Z 2818/2918 21013G23KT P6SM SCT070 OVC250
      TEMPO 2822/2902 6SM -SHRA OVC040
     FM290200 18007KT P6SM BKN250
     FM290500 20013KT P6SM SCT070 BKN120 OVC250 WS015/25045KT PROB30
      2908/2912 6SM -SHRA OVC030
     FM291200 23015KT P6SM BKN030 OVC120
     FM291600 23015G25KT P6SM BKN040 BKN120=

USA.gov is the U.S. government's official web portal to all federal, state and local government web resources and services.